Tourist.f.b.terzo — IQAQ — position and weather

sailwx.info

Track history (hours):
 
Tides and Currents Weather Stations Pressure Air Temp Water Temp Dewpoint Dewpoint Depression Visibility Wind Speed Wind Dir Waves Ship Positions

Tourist.f.b.terzo

Last reported at 2014-Dec-23 03:33 UTC. Time now 2014-Dec-23 04:27 UTC.
Position N 40°46' E 013°59'.

Length 53 m; draft 1.8 m.

Type: Ship. MMSI: 247048900.

Date/timePositionNaut miles runAvg speedWind from/ knotsBaromVisibWave heightAir tempDewpointWater temp
2014-Dec-23 03:33N 40°46' E 013°59'1 0.8
2014-Dec-23 02:33N 40°46' E 013°58'6 6.5
2014-Dec-23 01:33N 40°47' E 014°06'0 0.5
2014-Dec-23 00:33N 40°47' E 014°06'9 8.7
2014-Dec-22 23:33N 40°45' E 013°55'0 0.1
2014-Dec-22 22:34N 40°45' E 013°54'0 0.0
2014-Dec-22 21:33N 40°45' E 013°54'0 0.0
2014-Dec-22 20:33N 40°45' E 013°54'0 0.0
2014-Dec-22 19:33N 40°45' E 013°54'0 0.0
2014-Dec-22 18:33N 40°45' E 013°54'0 0.0
2014-Dec-22 17:33N 40°45' E 013°54'0 0.0
2014-Dec-22 16:33N 40°45' E 013°54'0 0.0
2014-Dec-22 15:33N 40°45' E 013°54'0 0.0
2014-Dec-22 14:33N 40°45' E 013°54'0 0.0
2014-Dec-20 11:18N 40°45' E 013°54'0 0.0
2014-Dec-20 10:33N 40°45' E 013°54'0 0.0
2014-Dec-20 09:33N 40°45' E 013°54'9 8.8
2014-Dec-20 08:33N 40°47' E 014°06'2 2.3
2014-Dec-20 07:33N 40°49' E 014°06'7 7.4
2014-Dec-20 06:33N 40°46' E 013°58'1 1.0
2014-Dec-20 05:33N 40°46' E 013°59'7 7.0
2014-Dec-20 04:33N 40°49' E 014°07'6 6.1
2014-Dec-20 03:33N 40°47' E 013°60'3 2.9
2014-Dec-20 02:33N 40°46' E 013°56'8 8.0
2014-Dec-20 01:33N 40°48' E 014°06'2 2.0
2014-Dec-20 00:33N 40°47' E 014°06'8 8.5
2014-Dec-19 23:33N 40°45' E 013°55'1 0.1
2014-Dec-19 12:31N 40°45' E 013°54'0 0.5
2014-Dec-19 11:33N 40°45' E 013°54'6 5.7
2014-Dec-19 10:33N 40°46' E 014°02'5 5.4
2014-Dec-19 09:33N 40°49' E 014°07'0 0.0
2014-Dec-19 08:33N 40°49' E 014°07'4 3.7
2014-Dec-19 07:32N 40°46' E 014°04'6 6.5
2014-Dec-19 06:32N 40°46' E 013°56'4 3.7
2014-Dec-19 05:33N 40°47' E 014°00'6 5.8
2014-Dec-19 04:33N 40°49' E 014°07'6 6.2
2014-Dec-19 03:33N 40°47' E 013°60'3 2.5
2014-Dec-19 02:33N 40°46' E 013°57'7 7.2
2014-Dec-19 01:31N 40°48' E 014°06'2 1.9
2014-Dec-19 00:33N 40°46' E 014°04'8 7.1
2014-Dec-18 23:29N 40°45' E 013°55'0 0.0
2014-Dec-18 22:33N 40°45' E 013°54'0 0.0
2014-Dec-18 21:33N 40°45' E 013°54'0 0.0
2014-Dec-18 20:33N 40°45' E 013°54'0 0.0
2014-Dec-18 19:33N 40°45' E 013°54'0 0.0
2014-Dec-18 18:33N 40°45' E 013°54'0 0.0
2014-Dec-18 17:33N 40°45' E 013°54'0 0.0
2014-Dec-18 16:33N 40°45' E 013°54'0 0.0
2014-Dec-18 15:33N 40°45' E 013°54'0 0.0
2014-Dec-18 14:33N 40°45' E 013°54'0 0.0
2014-Dec-18 13:33N 40°45' E 013°54'0 0.0
2014-Dec-18 12:33N 40°45' E 013°54'0 0.0
2014-Dec-18 11:33N 40°45' E 013°54'0 0.0
2014-Dec-18 10:33N 40°45' E 013°54'4 3.7
2014-Dec-18 09:33N 40°46' E 013°59'7 6.8
2014-Dec-18 08:33N 40°49' E 014°07'3 3.1
2014-Dec-18 07:33N 40°46' E 014°06'7 6.9
2014-Dec-18 06:33N 40°46' E 013°57'2 2.4
2014-Dec-18 05:33N 40°46' E 013°60'6 6.1
2014-Dec-18 04:32N 40°49' E 014°07'5 5.4
2014-Dec-18 03:33N 40°47' E 014°01'5 4.5
2014-Dec-18 02:33N 40°45' E 013°55'8 7.6
2014-Dec-18 01:33N 40°46' E 014°05'1 0.9
2014-Dec-18 00:34N 40°47' E 014°06'8 8.3
2014-Dec-17 23:33N 40°45' E 013°55'1 0.1
2014-Dec-17 11:34N 40°45' E 013°54'5 5.0
2014-Dec-17 10:33N 40°47' E 014°01'5 5.5
2014-Dec-17 09:33N 40°49' E 014°07'4 4.3
2014-Dec-17 08:34N 40°46' E 014°04'6 6.4
2014-Dec-17 07:33N 40°45' E 013°56'5 4.7
2014-Dec-17 06:34N 40°46' E 014°02'5 5.2
2014-Dec-17 05:33N 40°49' E 014°07'5 5.0
2014-Dec-17 04:33N 40°46' E 014°02'6 5.8
2014-Dec-17 03:33N 40°45' E 013°54'5 4.7
2014-Dec-17 02:33N 40°46' E 014°00'5 5.1
2014-Dec-17 01:33N 40°49' E 014°06'4 3.7
2014-Dec-17 00:33N 40°46' E 014°04'6 6.3
2014-Dec-16 23:33N 40°45' E 013°55'1 0.6
2014-Dec-16 22:34N 40°45' E 013°54'0 0.0
2014-Dec-16 21:34N 40°45' E 013°54'0 0.0
2014-Dec-16 20:34N 40°45' E 013°54'0 0.0
2014-Dec-16 19:33N 40°45' E 013°54'0 0.0
2014-Dec-16 18:34N 40°45' E 013°54'0 0.0
2014-Dec-16 17:33N 40°45' E 013°54'0 0.0
2014-Dec-16 16:34N 40°45' E 013°54'0 0.0
2014-Dec-16 15:34N 40°45' E 013°54'0 0.0
2014-Dec-16 14:33N 40°45' E 013°54'0 0.0
2014-Dec-16 13:34N 40°45' E 013°54'0 0.0
2014-Dec-16 12:33N 40°45' E 013°54'0 0.0
2014-Dec-16 11:33N 40°45' E 013°54'4 3.8
2014-Dec-16 10:33N 40°46' E 013°59'6 6.2
2014-Dec-16 09:33N 40°49' E 014°06'0 0.3
2014-Dec-16 08:33N 40°49' E 014°06'5 4.6
2014-Dec-16 07:34N 40°46' E 014°01'4 4.0
2014-Dec-16 06:33N 40°46' E 013°56'8 8.2
2014-Dec-16 05:34N 40°48' E 014°06'3 2.8
2014-Dec-16 04:32N 40°46' E 014°04'7 7.1
2014-Dec-16 03:32N 40°45' E 013°54'4 4.4
2014-Dec-16 02:33N 40°46' E 013°60'6 5.9
2014-Dec-16 01:32N 40°49' E 014°07'4 4.3
2014-Dec-16 00:31N 40°46' E 014°03'7 7.1
2014-Dec-15 23:33N 40°45' E 013°54'0 0.0
2014-Dec-15 22:34N 40°45' E 013°54'0 0.0
2014-Dec-15 21:34N 40°45' E 013°54'0 0.0
2014-Dec-15 20:33N 40°45' E 013°54'0 0.0
2014-Dec-15 19:33N 40°45' E 013°54'0 0.0
2014-Dec-15 18:34N 40°45' E 013°54'0 0.0
2014-Dec-15 17:34N 40°45' E 013°54'0 0.0
2014-Dec-15 16:34N 40°45' E 013°54'0 0.0
2014-Dec-15 15:34N 40°45' E 013°54'0 0.0
2014-Dec-15 14:33N 40°45' E 013°54'0 0.0
2014-Dec-15 13:34N 40°45' E 013°54'0 0.0
2014-Dec-15 12:33N 40°45' E 013°54'0 0.0
2014-Dec-15 11:33N 40°45' E 013°54'0 0.0
2014-Dec-15 10:33N 40°45' E 013°54'7 6.8
2014-Dec-15 09:33N 40°46' E 014°03'4 3.6
2014-Dec-15 08:33N 40°49' E 014°06'7 6.6
2014-Dec-15 07:33N 40°47' E 013°58'1 1.4
2014-Dec-15 06:34N 40°46' E 013°57'2 0.3
2014-Dec-14 23:28N 40°45' E 013°54'0 0.0
2014-Dec-13 11:33N 40°45' E 013°54'0 0.0
2014-Dec-13 10:33N 40°45' E 013°54'0 0.0
2014-Dec-13 09:33N 40°45' E 013°54'8 8.5
2014-Dec-13 08:33N 40°46' E 014°06'3 3.2
2014-Dec-13 07:33N 40°49' E 014°07'5 5.4
2014-Dec-13 06:33N 40°47' E 014°01'3 2.8
2014-Dec-13 05:33N 40°46' E 013°57'8 7.7
2014-Dec-13 04:33N 40°49' E 014°07'5 4.8
2014-Dec-13 03:33N 40°47' E 014°01'  
Track history (hours):
 
Tides and Currents Weather Stations Pressure Air Temp Water Temp Dewpoint Dewpoint Depression Visibility Wind Speed Wind Dir Waves Ship Positions

Tourist.f.b.terzo

Last reported at 2014-Dec-23 03:33 UTC. Time now 2014-Dec-23 04:27 UTC.
Position N 40°46' E 013°59'.

Length 53 m; draft 1.8 m.

Type: Ship. MMSI: 247048900.

Date/timePositionNaut miles runAvg speedWind from/ knotsBaromVisibWave heightAir tempDewpointWater temp
2014-Dec-23 03:33N 40°46' E 013°59'1 0.8
2014-Dec-23 02:33N 40°46' E 013°58'6 6.5
2014-Dec-23 01:33N 40°47' E 014°06'0 0.5
2014-Dec-23 00:33N 40°47' E 014°06'9 8.7
2014-Dec-22 23:33N 40°45' E 013°55'0 0.1
2014-Dec-22 22:34N 40°45' E 013°54'0 0.0
2014-Dec-22 21:33N 40°45' E 013°54'0 0.0
2014-Dec-22 20:33N 40°45' E 013°54'0 0.0
2014-Dec-22 19:33N 40°45' E 013°54'0 0.0
2014-Dec-22 18:33N 40°45' E 013°54'0 0.0
2014-Dec-22 17:33N 40°45' E 013°54'0 0.0
2014-Dec-22 16:33N 40°45' E 013°54'0 0.0
2014-Dec-22 15:33N 40°45' E 013°54'0 0.0
2014-Dec-22 14:33N 40°45' E 013°54'0 0.0
2014-Dec-20 11:18N 40°45' E 013°54'0 0.0
2014-Dec-20 10:33N 40°45' E 013°54'0 0.0
2014-Dec-20 09:33N 40°45' E 013°54'9 8.8
2014-Dec-20 08:33N 40°47' E 014°06'2 2.3
2014-Dec-20 07:33N 40°49' E 014°06'7 7.4
2014-Dec-20 06:33N 40°46' E 013°58'1 1.0
2014-Dec-20 05:33N 40°46' E 013°59'7 7.0
2014-Dec-20 04:33N 40°49' E 014°07'6 6.1
2014-Dec-20 03:33N 40°47' E 013°60'3 2.9
2014-Dec-20 02:33N 40°46' E 013°56'8 8.0
2014-Dec-20 01:33N 40°48' E 014°06'2 2.0
2014-Dec-20 00:33N 40°47' E 014°06'8 8.5
2014-Dec-19 23:33N 40°45' E 013°55'1 0.1
2014-Dec-19 12:31N 40°45' E 013°54'0 0.5
2014-Dec-19 11:33N 40°45' E 013°54'6 5.7
2014-Dec-19 10:33N 40°46' E 014°02'5 5.4
2014-Dec-19 09:33N 40°49' E 014°07'0 0.0
2014-Dec-19 08:33N 40°49' E 014°07'4 3.7
2014-Dec-19 07:32N 40°46' E 014°04'6 6.5
2014-Dec-19 06:32N 40°46' E 013°56'4 3.7
2014-Dec-19 05:33N 40°47' E 014°00'6 5.8
2014-Dec-19 04:33N 40°49' E 014°07'6 6.2
2014-Dec-19 03:33N 40°47' E 013°60'3 2.5
2014-Dec-19 02:33N 40°46' E 013°57'7 7.2
2014-Dec-19 01:31N 40°48' E 014°06'2 1.9
2014-Dec-19 00:33N 40°46' E 014°04'8 7.1
2014-Dec-18 23:29N 40°45' E 013°55'0 0.0
2014-Dec-18 22:33N 40°45' E 013°54'0 0.0
2014-Dec-18 21:33N 40°45' E 013°54'0 0.0
2014-Dec-18 20:33N 40°45' E 013°54'0 0.0
2014-Dec-18 19:33N 40°45' E 013°54'0 0.0
2014-Dec-18 18:33N 40°45' E 013°54'0 0.0
2014-Dec-18 17:33N 40°45' E 013°54'0 0.0
2014-Dec-18 16:33N 40°45' E 013°54'0 0.0
2014-Dec-18 15:33N 40°45' E 013°54'0 0.0
2014-Dec-18 14:33N 40°45' E 013°54'0 0.0
2014-Dec-18 13:33N 40°45' E 013°54'0 0.0
2014-Dec-18 12:33N 40°45' E 013°54'0 0.0
2014-Dec-18 11:33N 40°45' E 013°54'0 0.0
2014-Dec-18 10:33N 40°45' E 013°54'4 3.7
2014-Dec-18 09:33N 40°46' E 013°59'7 6.8
2014-Dec-18 08:33N 40°49' E 014°07'3 3.1
2014-Dec-18 07:33N 40°46' E 014°06'7 6.9
2014-Dec-18 06:33N 40°46' E 013°57'2 2.4
2014-Dec-18 05:33N 40°46' E 013°60'6 6.1
2014-Dec-18 04:32N 40°49' E 014°07'5 5.4
2014-Dec-18 03:33N 40°47' E 014°01'5 4.5
2014-Dec-18 02:33N 40°45' E 013°55'8 7.6
2014-Dec-18 01:33N 40°46' E 014°05'1 0.9
2014-Dec-18 00:34N 40°47' E 014°06'8 8.3
2014-Dec-17 23:33N 40°45' E 013°55'1 0.1
2014-Dec-17 11:34N 40°45' E 013°54'5 5.0
2014-Dec-17 10:33N 40°47' E 014°01'5 5.5
2014-Dec-17 09:33N 40°49' E 014°07'4 4.3
2014-Dec-17 08:34N 40°46' E 014°04'6 6.4
2014-Dec-17 07:33N 40°45' E 013°56'5 4.7
2014-Dec-17 06:34N 40°46' E 014°02'5 5.2
2014-Dec-17 05:33N 40°49' E 014°07'5 5.0
2014-Dec-17 04:33N 40°46' E 014°02'6 5.8
2014-Dec-17 03:33N 40°45' E 013°54'5 4.7
2014-Dec-17 02:33N 40°46' E 014°00'5 5.1
2014-Dec-17 01:33N 40°49' E 014°06'4 3.7
2014-Dec-17 00:33N 40°46' E 014°04'6 6.3
2014-Dec-16 23:33N 40°45' E 013°55'1 0.6
2014-Dec-16 22:34N 40°45' E 013°54'0 0.0
2014-Dec-16 21:34N 40°45' E 013°54'0 0.0
2014-Dec-16 20:34N 40°45' E 013°54'0 0.0
2014-Dec-16 19:33N 40°45' E 013°54'0 0.0
2014-Dec-16 18:34N 40°45' E 013°54'0 0.0
2014-Dec-16 17:33N 40°45' E 013°54'0 0.0
2014-Dec-16 16:34N 40°45' E 013°54'0 0.0
2014-Dec-16 15:34N 40°45' E 013°54'0 0.0
2014-Dec-16 14:33N 40°45' E 013°54'0 0.0
2014-Dec-16 13:34N 40°45' E 013°54'0 0.0
2014-Dec-16 12:33N 40°45' E 013°54'0 0.0
2014-Dec-16 11:33N 40°45' E 013°54'4 3.8
2014-Dec-16 10:33N 40°46' E 013°59'6 6.2
2014-Dec-16 09:33N 40°49' E 014°06'0 0.3
2014-Dec-16 08:33N 40°49' E 014°06'5 4.6
2014-Dec-16 07:34N 40°46' E 014°01'4 4.0
2014-Dec-16 06:33N 40°46' E 013°56'8 8.2
2014-Dec-16 05:34N 40°48' E 014°06'3 2.8
2014-Dec-16 04:32N 40°46' E 014°04'7 7.1
2014-Dec-16 03:32N 40°45' E 013°54'4 4.4
2014-Dec-16 02:33N 40°46' E 013°60'6 5.9
2014-Dec-16 01:32N 40°49' E 014°07'4 4.3
2014-Dec-16 00:31N 40°46' E 014°03'7 7.1
2014-Dec-15 23:33N 40°45' E 013°54'0 0.0
2014-Dec-15 22:34N 40°45' E 013°54'0 0.0
2014-Dec-15 21:34N 40°45' E 013°54'0 0.0
2014-Dec-15 20:33N 40°45' E 013°54'0 0.0
2014-Dec-15 19:33N 40°45' E 013°54'0 0.0
2014-Dec-15 18:34N 40°45' E 013°54'0 0.0
2014-Dec-15 17:34N 40°45' E 013°54'0 0.0
2014-Dec-15 16:34N 40°45' E 013°54'0 0.0
2014-Dec-15 15:34N 40°45' E 013°54'0 0.0
2014-Dec-15 14:33N 40°45' E 013°54'0 0.0
2014-Dec-15 13:34N 40°45' E 013°54'0 0.0
2014-Dec-15 12:33N 40°45' E 013°54'0 0.0
2014-Dec-15 11:33N 40°45' E 013°54'0 0.0
2014-Dec-15 10:33N 40°45' E 013°54'7 6.8
2014-Dec-15 09:33N 40°46' E 014°03'4 3.6
2014-Dec-15 08:33N 40°49' E 014°06'7 6.6
2014-Dec-15 07:33N 40°47' E 013°58'1 1.4
2014-Dec-15 06:34N 40°46' E 013°57'2 0.3
2014-Dec-14 23:28N 40°45' E 013°54'0 0.0
2014-Dec-13 11:33N 40°45' E 013°54'0 0.0
2014-Dec-13 10:33N 40°45' E 013°54'0 0.0
2014-Dec-13 09:33N 40°45' E 013°54'8 8.5
2014-Dec-13 08:33N 40°46' E 014°06'3 3.2
2014-Dec-13 07:33N 40°49' E 014°07'5 5.4
2014-Dec-13 06:33N 40°47' E 014°01'3 2.8
2014-Dec-13 05:33N 40°46' E 013°57'8 7.7
2014-Dec-13 04:33N 40°49' E 014°07'5 4.8
2014-Dec-13 03:33N 40°47' E 014°01'  

Dump ship's entire track history